createdAt,value
2018-06-17T00:00:25.466Z,99.01
2018-06-17T00:01:26.046Z,99.15
2018-06-17T00:02:25.421Z,98.82
2018-06-17T00:03:25.602Z,98.82
2018-06-17T00:04:25.372Z,99.10
2018-06-17T00:05:26.048Z,99.10
2018-06-17T00:06:25.390Z,98.91
2018-06-17T00:07:26.059Z,98.43
2018-06-17T00:08:25.284Z,98.43
2018-06-17T00:09:26.049Z,97.95
2018-06-17T00:10:26.098Z,98.14
2018-06-17T00:11:25.602Z,98.43
2018-06-17T00:12:25.187Z,98.14
2018-06-17T00:13:26.051Z,98.05
2018-06-17T00:14:25.135Z,98.05
2018-06-17T00:15:25.110Z,98.14
2018-06-17T00:16:25.144Z,98.82
2018-06-17T00:17:26.050Z,98.24
2018-06-17T00:18:25.039Z,98.43
2018-06-17T00:19:27.552Z,98.05
2018-06-17T00:20:24.996Z,98.43
2018-06-17T00:21:25.014Z,97.86
2018-06-17T00:22:25.556Z,98.72
2018-06-17T00:23:24.922Z,98.14
2018-06-17T00:24:25.105Z,98.24
2018-06-17T00:25:24.873Z,98.33
2018-06-17T00:26:25.555Z,98.53
2018-06-17T00:27:24.828Z,97.52
2018-06-17T00:28:25.563Z,98.48
2018-06-17T00:29:24.821Z,98.10
2018-06-17T00:30:24.760Z,98.38
2018-06-17T00:31:25.552Z,98.57
2018-06-17T00:32:24.708Z,98.28
2018-06-17T00:33:25.555Z,98.10
2018-06-17T00:34:24.704Z,98.57
2018-06-17T00:35:25.553Z,99.53
2018-06-17T00:36:24.613Z,98.28
2018-06-17T00:37:25.556Z,98.00
2018-06-17T00:38:24.565Z,98.19
2018-06-17T00:39:24.582Z,98.00
2018-06-17T00:40:24.516Z,98.00
2018-06-17T00:41:24.492Z,98.48
2018-06-17T00:42:25.054Z,98.38
2018-06-17T00:43:24.441Z,98.38
2018-06-17T00:44:24.613Z,98.48
2018-06-17T00:45:24.438Z,98.00
2018-06-17T00:46:24.370Z,98.86
2018-06-17T00:47:25.057Z,98.10
2018-06-17T00:48:24.377Z,98.10
2018-06-17T00:49:24.300Z,98.10
2018-06-17T00:50:24.294Z,98.38
2018-06-17T00:51:25.065Z,98.10
2018-06-17T00:52:24.265Z,98.38
2018-06-17T00:53:25.061Z,97.66
2018-06-17T00:54:24.178Z,98.43
2018-06-17T00:55:24.200Z,98.24
2018-06-17T00:56:24.129Z,98.91
2018-06-17T00:57:25.058Z,98.24
2018-06-17T00:58:24.139Z,99.39
2018-06-17T00:59:24.559Z,99.39
2018-06-17T01:00:24.036Z,99.29
2018-06-17T01:01:24.115Z,99.01
2018-06-17T01:02:23.984Z,98.81
2018-06-17T01:03:24.115Z,99.29
2018-06-17T01:04:23.943Z,99.29
2018-06-17T01:05:24.560Z,99.29
2018-06-17T01:06:23.889Z,99.01
2018-06-17T01:07:23.947Z,99.10
2018-06-17T01:08:24.115Z,99.48
2018-06-17T01:09:23.827Z,99.39
2018-06-17T01:10:23.791Z,99.48
2018-06-17T01:11:23.820Z,99.58
2018-06-17T01:12:24.563Z,99.72
2018-06-17T01:13:23.719Z,99.43
2018-06-17T01:14:24.568Z,99.63
2018-06-17T01:15:23.684Z,99.99
2018-06-17T01:16:24.118Z,99.99
2018-06-17T01:17:23.623Z,99.99
2018-06-17T01:18:24.562Z,99.99
2018-06-17T01:19:23.572Z,99.99
2018-06-17T01:20:24.062Z,99.99
2018-06-17T01:21:23.571Z,99.99
2018-06-17T01:22:24.066Z,99.99
2018-06-17T01:23:23.479Z,99.99
2018-06-17T01:24:23.449Z,99.99
2018-06-17T01:25:23.432Z,99.99
2018-06-17T01:26:23.621Z,99.99
2018-06-17T01:27:23.374Z,99.99
2018-06-17T01:28:24.064Z,99.99
2018-06-17T01:29:23.370Z,99.99
2018-06-17T01:30:23.312Z,99.99
2018-06-17T01:31:24.077Z,99.99
2018-06-17T01:32:23.261Z,99.99
2018-06-17T01:33:24.067Z,99.99
2018-06-17T01:34:23.246Z,99.99
2018-06-17T01:35:23.624Z,99.99
2018-06-17T01:36:23.153Z,99.99
2018-06-17T01:37:24.079Z,99.99
2018-06-17T01:38:23.104Z,99.99
2018-06-17T01:39:24.068Z,99.99
2018-06-17T01:40:23.101Z,99.99
2018-06-17T01:41:23.029Z,99.99
2018-06-17T01:42:23.576Z,99.99
2018-06-17T01:43:22.993Z,99.99
2018-06-17T01:44:23.571Z,99.99
2018-06-17T01:45:22.996Z,99.99
2018-06-17T01:46:23.569Z,99.99
2018-06-17T01:47:22.883Z,99.99
2018-06-17T01:48:23.569Z,99.99
2018-06-17T01:49:22.833Z,99.99
2018-06-17T01:50:23.127Z,99.99
2018-06-17T01:51:22.789Z,99.99
2018-06-17T01:52:23.571Z,99.99
2018-06-17T01:53:22.790Z,99.99
2018-06-17T01:54:23.569Z,99.99
2018-06-17T01:55:22.687Z,99.99
2018-06-17T01:56:23.576Z,99.99
2018-06-17T01:57:22.646Z,99.99
2018-06-17T01:58:22.667Z,99.99
2018-06-17T01:59:23.572Z,99.99
2018-06-17T02:00:22.564Z,99.99
2018-06-17T02:01:23.069Z,99.99
2018-06-17T02:02:22.516Z,99.99
2018-06-17T02:03:22.624Z,99.99
2018-06-17T02:04:22.464Z,99.99
2018-06-17T02:05:23.081Z,99.99
2018-06-17T02:06:22.414Z,99.99
2018-06-17T02:07:23.072Z,99.99
2018-06-17T02:08:22.406Z,99.99
2018-06-17T02:09:22.382Z,99.99
2018-06-17T02:10:22.312Z,99.99
2018-06-17T02:11:22.297Z,99.99
2018-06-17T02:12:22.266Z,99.82
2018-06-17T02:13:22.243Z,99.34
2018-06-17T02:14:22.273Z,99.05
2018-06-17T02:15:22.189Z,99.34
2018-06-17T02:16:22.175Z,99.05
2018-06-17T02:17:22.141Z,99.15
2018-06-17T02:18:22.115Z,99.15
2018-06-17T02:19:22.138Z,99.05
2018-06-17T02:20:22.064Z,99.05
2018-06-17T02:21:22.040Z,98.96
2018-06-17T02:22:22.017Z,99.53
2018-06-17T02:23:22.039Z,99.34
2018-06-17T02:24:21.971Z,99.99
2018-06-17T02:25:22.007Z,99.99
2018-06-17T02:26:21.920Z,99.82
2018-06-17T02:27:21.890Z,99.72
2018-06-17T02:28:21.879Z,99.99
2018-06-17T02:29:21.842Z,99.99
2018-06-17T02:30:21.882Z,99.43
2018-06-17T02:31:21.793Z,99.34
2018-06-17T02:32:21.785Z,99.63
2018-06-17T02:33:21.744Z,99.91
2018-06-17T02:34:21.729Z,99.91
2018-06-17T02:35:21.749Z,99.99
2018-06-17T02:36:21.672Z,99.99
2018-06-17T02:37:21.656Z,99.99
2018-06-17T02:38:21.621Z,99.99
2018-06-17T02:39:21.597Z,99.99
2018-06-17T02:40:21.627Z,99.99
2018-06-17T02:41:21.584Z,99.99
2018-06-17T02:42:21.566Z,99.99
2018-06-17T02:43:21.524Z,99.99
2018-06-17T02:44:21.524Z,99.99
2018-06-17T02:45:21.446Z,99.99
2018-06-17T02:46:21.424Z,99.99
2018-06-17T02:47:21.403Z,99.99
2018-06-17T02:48:21.388Z,99.99
2018-06-17T02:49:21.386Z,99.99
2018-06-17T02:50:21.335Z,99.99
2018-06-17T02:51:22.084Z,99.99
2018-06-17T02:52:21.309Z,99.91
2018-06-17T02:53:21.248Z,99.99
2018-06-17T02:54:21.222Z,99.99
2018-06-17T02:55:21.241Z,99.91
2018-06-17T02:56:21.179Z,99.99
2018-06-17T02:57:21.226Z,99.99
2018-06-17T02:58:21.123Z,99.96
2018-06-17T02:59:21.100Z,99.99
2018-06-17T03:00:21.073Z,99.99
2018-06-17T03:01:21.103Z,99.99
2018-06-17T03:02:21.024Z,99.99
2018-06-17T03:03:21.588Z,99.99
2018-06-17T03:04:20.975Z,99.99
2018-06-17T03:05:20.949Z,99.99
2018-06-17T03:06:20.980Z,99.99
2018-06-17T03:07:20.897Z,99.99
2018-06-17T03:08:20.875Z,99.99
2018-06-17T03:09:20.849Z,99.91
2018-06-17T03:10:20.822Z,99.99
2018-06-17T03:11:20.842Z,99.99
2018-06-17T03:12:20.775Z,99.99
2018-06-17T03:13:20.751Z,99.99
2018-06-17T03:14:20.728Z,99.99
2018-06-17T03:15:20.739Z,99.99
2018-06-17T03:16:20.690Z,99.99
2018-06-17T03:17:20.708Z,99.99
2018-06-17T03:18:20.622Z,99.43
2018-06-17T03:19:20.616Z,99.05
2018-06-17T03:20:20.605Z,98.57
2018-06-17T03:21:20.555Z,99.05
2018-06-17T03:22:20.573Z,98.57
2018-06-17T03:23:20.504Z,98.67
2018-06-17T03:24:20.474Z,99.24
2018-06-17T03:25:20.451Z,99.24
2018-06-17T03:26:20.424Z,99.24
2018-06-17T03:27:20.438Z,98.57
2018-06-17T03:28:20.422Z,98.67
2018-06-17T03:29:20.353Z,98.47
2018-06-17T03:30:20.324Z,98.86
2018-06-17T03:31:20.301Z,98.67
2018-06-17T03:32:20.349Z,98.57
2018-06-17T03:33:20.250Z,98.57
2018-06-17T03:34:20.226Z,98.67
2018-06-17T03:35:20.242Z,98.96
2018-06-17T03:36:20.175Z,98.86
2018-06-17T03:37:20.166Z,99.43
2018-06-17T03:38:20.640Z,99.15
2018-06-17T03:39:20.099Z,99.43
2018-06-17T03:40:20.119Z,99.34
2018-06-17T03:41:20.069Z,99.05
2018-06-17T03:42:20.600Z,99.43
2018-06-17T03:43:20.039Z,99.15
2018-06-17T03:44:19.977Z,99.05
2018-06-17T03:45:19.998Z,99.24
2018-06-17T03:46:19.972Z,98.96
2018-06-17T03:47:19.902Z,99.05
2018-06-17T03:48:19.936Z,98.76
2018-06-17T03:49:19.855Z,98.47
2018-06-17T03:50:19.873Z,98.00
2018-06-17T03:51:19.845Z,97.95
2018-06-17T03:52:19.814Z,98.24
2018-06-17T03:53:19.752Z,98.05
2018-06-17T03:54:19.731Z,98.33
2018-06-17T03:55:19.751Z,98.33
2018-06-17T03:56:19.686Z,98.24
2018-06-17T03:57:19.660Z,98.72
2018-06-17T03:58:19.637Z,98.43
2018-06-17T03:59:19.606Z,97.95
2018-06-17T04:00:19.627Z,98.00
2018-06-17T04:01:19.563Z,97.71
2018-06-17T04:02:19.599Z,97.61
2018-06-17T04:03:19.513Z,96.66
2018-06-17T04:04:19.486Z,96.66
2018-06-17T04:05:19.462Z,96.27
2018-06-17T04:06:19.438Z,96.47
2018-06-17T04:07:19.463Z,96.47
2018-06-17T04:08:19.409Z,96.37
2018-06-17T04:09:19.365Z,96.03
2018-06-17T04:10:19.359Z,95.17
2018-06-17T04:11:19.324Z,94.79
2018-06-17T04:12:19.357Z,95.36
2018-06-17T04:13:19.274Z,96.32
2018-06-17T04:14:19.251Z,96.13
2018-06-17T04:15:19.224Z,96.70
2018-06-17T04:16:19.205Z,96.70
2018-06-17T04:17:19.225Z,96.75
2018-06-17T04:18:19.150Z,96.66
2018-06-17T04:19:19.137Z,96.08
2018-06-17T04:20:19.101Z,96.56
2018-06-17T04:21:19.081Z,96.18
2018-06-17T04:22:19.107Z,95.26
2018-06-17T04:23:19.030Z,95.36
2018-06-17T04:24:19.011Z,94.88
2018-06-17T04:25:19.010Z,94.31
2018-06-17T04:26:18.964Z,93.68
2018-06-17T04:27:18.980Z,92.52
2018-06-17T04:28:18.914Z,91.18
2018-06-17T04:29:18.906Z,90.22
2018-06-17T04:30:18.911Z,89.07
2018-06-17T04:31:18.849Z,88.68
2018-06-17T04:32:18.860Z,88.39
2018-06-17T04:33:18.801Z,87.72
2018-06-17T04:34:18.782Z,87.72
2018-06-17T04:35:18.759Z,87.96
2018-06-17T04:36:18.729Z,87.92
2018-06-17T04:37:18.746Z,86.90
2018-06-17T04:38:18.686Z,86.90
2018-06-17T04:39:18.665Z,86.99
2018-06-17T04:40:18.641Z,87.76
2018-06-17T04:41:18.613Z,87.76
2018-06-17T04:42:18.640Z,87.76
2018-06-17T04:43:18.570Z,87.09
2018-06-17T04:44:18.545Z,87.38
2018-06-17T04:45:18.571Z,87.57
2018-06-17T04:46:18.503Z,88.06
2018-06-17T04:47:18.483Z,87.86
2018-06-17T04:48:18.458Z,88.34
2018-06-17T04:49:18.433Z,88.24
2018-06-17T04:50:18.460Z,88.06
2018-06-17T04:51:18.386Z,88.53
2018-06-17T04:52:18.368Z,88.15
2018-06-17T04:53:18.345Z,87.96
2018-06-17T04:54:18.325Z,88.15
2018-06-17T04:55:18.351Z,87.67
2018-06-17T04:56:18.274Z,86.99
2018-06-17T04:57:18.251Z,87.23
2018-06-17T04:58:18.241Z,86.56
2018-06-17T04:59:18.208Z,84.63
2018-06-17T05:00:18.232Z,82.65
2018-06-17T05:01:18.163Z,81.87
2018-06-17T05:02:18.144Z,80.08
2018-06-17T05:03:18.118Z,79.16
2018-06-17T05:04:18.102Z,78.09
2018-06-17T05:05:18.122Z,76.26
2018-06-17T05:06:18.059Z,76.20
2018-06-17T05:07:18.035Z,75.59
2018-06-17T05:08:18.013Z,75.68
2018-06-17T05:09:17.999Z,75.72
2018-06-17T05:10:18.014Z,75.88
2018-06-17T05:11:17.949Z,74.33
2018-06-17T05:12:17.931Z,75.05
2018-06-17T05:13:17.911Z,73.95
2018-06-17T05:14:17.889Z,74.33
2018-06-17T05:15:17.924Z,75.49
2018-06-17T05:16:17.856Z,76.32
2018-06-17T05:17:18.178Z,76.80
2018-06-17T05:18:17.840Z,76.80
2018-06-17T05:19:17.793Z,76.03
2018-06-17T05:20:17.774Z,76.86
2018-06-17T05:21:17.802Z,77.19
2018-06-17T05:22:17.734Z,76.96
2018-06-17T05:23:17.716Z,77.15
2018-06-17T05:24:17.698Z,77.83
2018-06-17T05:25:17.678Z,77.92
2018-06-17T05:26:17.699Z,78.11
2018-06-17T05:27:17.641Z,77.53
2018-06-17T05:28:17.624Z,78.88
2018-06-17T05:29:17.595Z,78.79
2018-06-17T05:30:17.579Z,78.65
2018-06-17T05:31:17.617Z,78.85
2018-06-17T05:32:17.538Z,78.56
2018-06-17T05:33:17.521Z,78.65
2018-06-17T05:34:17.495Z,78.65
2018-06-17T05:35:17.473Z,78.85
2018-06-17T05:36:17.498Z,79.33
2018-06-17T05:37:17.488Z,79.33
2018-06-17T05:38:17.410Z,79.71
2018-06-17T05:39:17.388Z,78.65
2018-06-17T05:40:17.374Z,79.52
2018-06-17T05:41:17.346Z,80.00
2018-06-17T05:42:17.389Z,80.19
2018-06-17T05:43:17.307Z,79.52
2018-06-17T05:44:17.284Z,79.90
2018-06-17T05:45:17.260Z,80.00
2018-06-17T05:46:17.240Z,80.00
2018-06-17T05:47:17.266Z,80.10
2018-06-17T05:48:17.194Z,80.38
2018-06-17T05:49:17.675Z,80.00
2018-06-17T05:50:17.155Z,79.61
2018-06-17T05:51:17.135Z,80.68
2018-06-17T05:52:17.109Z,80.58
2018-06-17T05:53:17.087Z,80.19
2018-06-17T05:54:17.125Z,80.58
2018-06-17T05:55:17.045Z,80.19
2018-06-17T05:56:17.024Z,80.68
2018-06-17T05:57:17.628Z,80.68
2018-06-17T05:58:16.977Z,80.58
2018-06-17T05:59:17.004Z,80.58
2018-06-17T06:00:16.938Z,80.58
2018-06-17T06:01:16.915Z,80.68
2018-06-17T06:02:16.897Z,80.87
2018-06-17T06:03:16.870Z,80.58
2018-06-17T06:04:16.912Z,81.54
2018-06-17T06:05:16.826Z,81.45
2018-06-17T06:06:16.810Z,81.35
2018-06-17T06:07:16.782Z,81.54
2018-06-17T06:08:16.771Z,81.63
2018-06-17T06:09:16.779Z,81.25
2018-06-17T06:10:16.779Z,81.45
2018-06-17T06:11:16.698Z,81.16
2018-06-17T06:12:16.674Z,81.54
2018-06-17T06:13:16.662Z,81.83
2018-06-17T06:14:16.680Z,81.73
2018-06-17T06:15:16.612Z,80.87
2018-06-17T06:16:16.585Z,80.71
2018-06-17T06:17:16.570Z,80.81
2018-06-17T06:18:16.546Z,80.23
2018-06-17T06:19:16.683Z,80.43
2018-06-17T06:20:16.538Z,80.91
2018-06-17T06:21:16.478Z,80.81
2018-06-17T06:22:16.498Z,80.91
2018-06-17T06:23:16.437Z,80.62
2018-06-17T06:24:16.414Z,81.10
2018-06-17T06:25:16.437Z,80.43
2018-06-17T06:26:16.370Z,81.01
2018-06-17T06:27:16.347Z,81.68
2018-06-17T06:28:16.327Z,80.33
2018-06-17T06:29:16.349Z,80.18
2018-06-17T06:30:16.328Z,80.33
2018-06-17T06:31:16.261Z,80.18
2018-06-17T06:32:16.243Z,81.04
2018-06-17T06:33:16.221Z,80.27
2018-06-17T06:34:16.203Z,80.27
2018-06-17T06:35:16.224Z,80.52
2018-06-17T06:36:16.153Z,80.85
2018-06-17T06:37:16.144Z,80.94
2018-06-17T06:38:16.110Z,81.24
2018-06-17T06:39:16.092Z,81.14
2018-06-17T06:40:16.110Z,80.66
2018-06-17T06:41:16.048Z,80.66
2018-06-17T06:42:16.027Z,80.46
2018-06-17T06:43:16.006Z,79.60
2018-06-17T06:44:15.985Z,79.98
2018-06-17T06:45:16.015Z,79.31
2018-06-17T06:46:15.939Z,78.73
2018-06-17T06:47:15.925Z,78.92
2018-06-17T06:48:15.906Z,79.02
2018-06-17T06:49:16.640Z,79.31
2018-06-17T06:50:15.916Z,78.34
2018-06-17T06:51:15.831Z,78.83
2018-06-17T06:52:15.813Z,79.93
2018-06-17T06:53:15.791Z,78.67
2018-06-17T06:54:15.768Z,78.19
2018-06-17T06:55:15.797Z,78.48
2018-06-17T06:56:15.770Z,78.58
2018-06-17T06:57:15.716Z,79.44
2018-06-17T06:58:15.684Z,79.74
2018-06-17T06:59:15.691Z,79.74
2018-06-17T07:00:15.640Z,80.60
2018-06-17T07:01:15.664Z,79.16
2018-06-17T07:02:15.601Z,78.67
2018-06-17T07:03:15.594Z,79.83
2018-06-17T07:04:15.558Z,78.77
2018-06-17T07:05:15.537Z,78.58
2018-06-17T07:06:15.574Z,79.16
2018-06-17T07:07:15.498Z,78.77
2018-06-17T07:08:15.483Z,78.96
2018-06-17T07:09:15.468Z,78.29
2018-06-17T07:10:15.440Z,78.58
2018-06-17T07:11:15.470Z,78.77
2018-06-17T07:12:15.399Z,78.96
2018-06-17T07:13:15.371Z,78.77
2018-06-17T07:14:15.367Z,78.71
2018-06-17T07:15:15.333Z,78.81
2018-06-17T07:16:15.351Z,79.77
2018-06-17T07:17:15.338Z,78.71
2018-06-17T07:18:15.267Z,78.42
2018-06-17T07:19:15.330Z,78.38
2018-06-17T07:20:15.226Z,79.00
2018-06-17T07:21:15.202Z,78.81
2018-06-17T07:22:15.182Z,78.81
2018-06-17T07:23:15.233Z,79.00
2018-06-17T07:24:15.181Z,79.10
2018-06-17T07:25:15.119Z,78.81
2018-06-17T07:26:15.101Z,78.42
2018-06-17T07:27:15.120Z,78.71
2018-06-17T07:28:15.108Z,78.61
2018-06-17T07:29:15.035Z,78.13
2018-06-17T07:30:15.021Z,78.42
2018-06-17T07:31:14.995Z,77.75
2018-06-17T07:32:15.018Z,78.03
2018-06-17T07:33:14.954Z,78.52
2018-06-17T07:34:14.976Z,77.88
2018-06-17T07:35:14.910Z,77.69
2018-06-17T07:36:14.893Z,77.07
2018-06-17T07:37:14.924Z,77.65
2018-06-17T07:38:14.845Z,77.94
2018-06-17T07:39:14.825Z,78.27
2018-06-17T07:40:14.847Z,77.88
2018-06-17T07:41:14.784Z,78.08
2018-06-17T07:42:14.810Z,77.05
2018-06-17T07:43:14.796Z,77.25
2018-06-17T07:44:14.724Z,75.51
2018-06-17T07:45:14.709Z,75.60
2018-06-17T07:46:14.680Z,75.70
2018-06-17T07:47:14.660Z,75.76
2018-06-17T07:48:14.684Z,75.67
2018-06-17T07:49:14.623Z,75.95
2018-06-17T07:50:14.598Z,75.85
2018-06-17T07:51:14.579Z,75.95
2018-06-17T07:52:14.605Z,76.05
2018-06-17T07:53:14.576Z,75.95
2018-06-17T07:54:14.517Z,75.85
2018-06-17T07:55:14.503Z,76.43
2018-06-17T07:56:14.522Z,76.15
2018-06-17T07:57:14.461Z,77.40
2018-06-17T07:58:14.439Z,77.30
2018-06-17T07:59:14.453Z,77.78
2018-06-17T08:00:14.393Z,77.01
2018-06-17T08:01:14.420Z,77.30
2018-06-17T08:02:14.351Z,76.34
2018-06-17T08:03:14.331Z,77.21
2018-06-17T08:04:14.315Z,77.50
2018-06-17T08:05:14.318Z,77.73
2018-06-17T08:06:14.319Z,77.50
2018-06-17T08:07:14.251Z,76.86
2018-06-17T08:08:14.236Z,76.86
2018-06-17T08:09:14.205Z,75.70
2018-06-17T08:10:14.207Z,75.89
2018-06-17T08:11:14.218Z,75.70
2018-06-17T08:12:14.148Z,75.60
2018-06-17T08:13:14.125Z,76.09
2018-06-17T08:14:14.104Z,76.28
2018-06-17T08:15:14.086Z,76.18
2018-06-17T08:16:14.118Z,75.02
2018-06-17T08:17:14.046Z,74.44
2018-06-17T08:18:14.028Z,74.93
2018-06-17T08:19:14.001Z,74.16
2018-06-17T08:20:14.052Z,74.25
2018-06-17T08:21:14.006Z,74.06
2018-06-17T08:22:13.941Z,74.44
2018-06-17T08:23:13.930Z,73.58
2018-06-17T08:24:13.903Z,73.77
2018-06-17T08:25:13.925Z,74.64
2018-06-17T08:26:13.863Z,73.96
2018-06-17T08:27:13.892Z,72.64
2018-06-17T08:28:13.821Z,73.61
2018-06-17T08:29:14.667Z,72.36
2018-06-17T08:30:13.835Z,72.39
2018-06-17T08:31:13.764Z,71.52
2018-06-17T08:32:13.756Z,72.30
2018-06-17T08:33:13.760Z,72.20
2018-06-17T08:34:13.699Z,72.00
2018-06-17T08:35:13.685Z,72.30
2018-06-17T08:36:13.662Z,72.58
2018-06-17T08:37:13.644Z,72.68
2018-06-17T08:38:13.683Z,72.20
2018-06-17T08:39:13.603Z,72.58
2018-06-17T08:40:13.589Z,72.30
2018-06-17T08:41:14.176Z,72.24
2018-06-17T08:42:13.541Z,72.24
2018-06-17T08:43:13.585Z,71.66
2018-06-17T08:44:13.506Z,71.17
2018-06-17T08:45:13.489Z,69.43
2018-06-17T08:46:13.468Z,69.92
2018-06-17T08:47:13.445Z,68.88
2018-06-17T08:48:13.467Z,68.49
2018-06-17T08:49:13.405Z,69.27
2018-06-17T08:50:13.386Z,68.98
2018-06-17T08:51:13.368Z,69.95
2018-06-17T08:52:13.348Z,70.34
2018-06-17T08:53:13.373Z,70.34
2018-06-17T08:54:13.332Z,70.24
2018-06-17T08:55:13.288Z,70.43
2018-06-17T08:56:13.739Z,70.14
2018-06-17T08:57:13.249Z,70.24
2018-06-17T08:58:13.242Z,70.04
2018-06-17T08:59:13.258Z,71.01
2018-06-17T09:00:14.182Z,70.53
2018-06-17T09:01:13.216Z,69.89
2018-06-17T09:02:13.157Z,69.08
2018-06-17T09:03:13.162Z,70.14
2018-06-17T09:04:13.202Z,70.72
2018-06-17T09:05:13.095Z,69.66
2018-06-17T09:06:13.074Z,70.24
2018-06-17T09:07:13.059Z,70.43
2018-06-17T09:08:13.045Z,69.75
2018-06-17T09:09:13.080Z,69.37
2018-06-17T09:10:13.011Z,68.75
2018-06-17T09:11:12.977Z,67.79
2018-06-17T09:12:12.967Z,68.66
2018-06-17T09:13:12.937Z,67.88
2018-06-17T09:14:12.980Z,67.59
2018-06-17T09:15:12.899Z,68.17
2018-06-17T09:16:12.896Z,68.17
2018-06-17T09:17:12.861Z,67.98
2018-06-17T09:18:12.843Z,67.98
2018-06-17T09:19:12.871Z,67.91
2018-06-17T09:20:12.806Z,66.47
2018-06-17T09:21:12.789Z,66.56
2018-06-17T09:22:12.830Z,67.05
2018-06-17T09:23:12.751Z,66.27
2018-06-17T09:24:12.741Z,65.59
2018-06-17T09:25:12.754Z,64.43
2018-06-17T09:26:12.708Z,64.04
2018-06-17T09:27:12.731Z,63.95
2018-06-17T09:28:12.648Z,64.14
2018-06-17T09:29:12.629Z,63.56
2018-06-17T09:30:12.608Z,64.92
2018-06-17T09:31:12.663Z,63.66
2018-06-17T09:32:12.598Z,64.04
2018-06-17T09:33:12.560Z,65.01
2018-06-17T09:34:12.531Z,64.75
2018-06-17T09:35:12.509Z,64.17
2018-06-17T09:36:12.541Z,64.24
2018-06-17T09:37:12.516Z,64.47
2018-06-17T09:38:12.454Z,65.53
2018-06-17T09:39:12.434Z,65.79
2018-06-17T09:40:12.415Z,65.98
2018-06-17T09:41:12.441Z,65.69
2018-06-17T09:42:12.392Z,66.56
2018-06-17T09:43:12.357Z,66.56
2018-06-17T09:44:12.341Z,67.82
2018-06-17T09:45:12.771Z,67.33
2018-06-17T09:46:12.298Z,67.05
2018-06-17T09:47:12.283Z,67.05
2018-06-17T09:48:12.260Z,66.95
2018-06-17T09:49:13.303Z,67.72
2018-06-17T09:50:12.221Z,67.33
2018-06-17T09:51:12.281Z,67.05
2018-06-17T09:52:12.219Z,67.63
2018-06-17T09:53:12.180Z,67.43
2018-06-17T09:54:12.225Z,67.14
2018-06-17T09:55:12.165Z,66.47
2018-06-17T09:56:12.725Z,65.88
2018-06-17T09:57:12.087Z,66.47
2018-06-17T09:58:12.071Z,66.17
2018-06-17T09:59:12.118Z,66.37
2018-06-17T10:00:12.034Z,67.05
2018-06-17T10:01:12.029Z,67.05
2018-06-17T10:02:11.991Z,67.33
2018-06-17T10:03:13.104Z,67.43
2018-06-17T10:04:11.999Z,68.30
2018-06-17T10:05:12.252Z,68.79
2018-06-17T10:06:11.967Z,68.01
2018-06-17T10:07:11.896Z,67.63
2018-06-17T10:08:11.877Z,67.63
2018-06-17T10:09:11.856Z,66.85
2018-06-17T10:10:11.839Z,67.82
2018-06-17T10:11:11.866Z,68.79
2018-06-17T10:12:11.800Z,67.33
2018-06-17T10:13:11.785Z,67.63
2018-06-17T10:14:11.773Z,67.24
2018-06-17T10:15:11.741Z,66.27
2018-06-17T10:16:11.776Z,66.17
2018-06-17T10:17:11.722Z,66.95
2018-06-17T10:18:11.694Z,66.75
2018-06-17T10:19:11.677Z,67.82
2018-06-17T10:20:11.673Z,68.37
2018-06-17T10:21:11.696Z,68.49
2018-06-17T10:22:11.611Z,68.08
2018-06-17T10:23:11.590Z,68.30
2018-06-17T10:24:11.587Z,68.11
2018-06-17T10:25:11.548Z,68.21
2018-06-17T10:26:11.782Z,68.98
2018-06-17T10:27:11.556Z,67.91
2018-06-17T10:28:11.493Z,67.98
2018-06-17T10:29:11.476Z,67.63
2018-06-17T10:30:11.453Z,68.30
2018-06-17T10:31:11.435Z,68.30
2018-06-17T10:32:11.480Z,68.01
2018-06-17T10:33:11.408Z,67.82
2018-06-17T10:34:11.376Z,68.21
2018-06-17T10:35:11.362Z,66.95
2018-06-17T10:36:11.364Z,65.59
2018-06-17T10:37:11.357Z,65.40
2018-06-17T10:38:11.343Z,66.85
2018-06-17T10:39:11.328Z,65.95
2018-06-17T10:40:11.274Z,66.14
2018-06-17T10:41:11.247Z,66.53
2018-06-17T10:42:11.227Z,65.56
2018-06-17T10:43:11.249Z,66.85
2018-06-17T10:44:11.230Z,65.27
2018-06-17T10:45:11.229Z,65.08
2018-06-17T10:46:11.192Z,65.08
2018-06-17T10:47:11.129Z,65.27
2018-06-17T10:48:11.118Z,65.01
2018-06-17T10:49:11.179Z,65.11
2018-06-17T10:50:11.077Z,64.53
2018-06-17T10:51:11.048Z,65.20
2018-06-17T10:52:11.035Z,64.56
2018-06-17T10:53:11.008Z,63.95
2018-06-17T10:54:11.035Z,63.69
2018-06-17T10:55:10.971Z,63.01
2018-06-17T10:56:10.978Z,63.11
2018-06-17T10:57:10.932Z,63.04
2018-06-17T10:58:10.935Z,62.56
2018-06-17T10:59:10.944Z,63.14
2018-06-17T11:00:10.884Z,61.91
2018-06-17T11:01:10.858Z,59.97
2018-06-17T11:02:10.839Z,60.85
2018-06-17T11:03:10.823Z,60.94
2018-06-17T11:04:11.268Z,60.07
2018-06-17T11:05:10.855Z,59.78
2018-06-17T11:06:10.810Z,59.78
2018-06-17T11:07:10.742Z,60.17
2018-06-17T11:08:10.726Z,60.14
2018-06-17T11:09:10.712Z,61.01
2018-06-17T11:10:10.688Z,61.11
2018-06-17T11:11:10.762Z,60.82
2018-06-17T11:12:10.654Z,61.30
2018-06-17T11:13:10.682Z,61.30
2018-06-17T11:14:10.690Z,61.24
2018-06-17T11:15:10.602Z,60.17
2018-06-17T11:16:10.599Z,60.46
2018-06-17T11:17:10.563Z,60.46
2018-06-17T11:18:10.546Z,60.20
2018-06-17T11:19:10.571Z,59.33
2018-06-17T11:20:10.506Z,58.94
2018-06-17T11:21:10.485Z,59.23
2018-06-17T11:22:10.517Z,58.45
2018-06-17T11:23:10.463Z,58.16
2018-06-17T11:24:10.437Z,59.26
2018-06-17T11:25:10.413Z,57.22
2018-06-17T11:26:10.456Z,57.51
2018-06-17T11:27:10.389Z,57.39
2018-06-17T11:28:10.363Z,58.55
2018-06-17T11:29:10.343Z,59.23
2018-06-17T11:30:10.326Z,59.81
2018-06-17T11:31:10.355Z,59.91
2018-06-17T11:32:10.306Z,59.03
2018-06-17T11:33:10.284Z,60.20
2018-06-17T11:34:10.257Z,60.03
2018-06-17T11:35:10.242Z,60.25
2018-06-17T11:36:11.229Z,58.31
2018-06-17T11:37:10.204Z,56.96
2018-06-17T11:38:10.191Z,57.25
2018-06-17T11:39:10.308Z,57.37
2018-06-17T11:40:10.158Z,56.96
2018-06-17T11:41:10.184Z,57.64
2018-06-17T11:42:10.117Z,56.18
2018-06-17T11:43:10.097Z,56.76
2018-06-17T11:44:10.084Z,56.76
2018-06-17T11:45:10.066Z,56.67
2018-06-17T11:46:10.102Z,56.96
2018-06-17T11:47:10.031Z,56.96
2018-06-17T11:48:10.105Z,56.28
2018-06-17T11:49:10.051Z,56.47
2018-06-17T11:50:09.985Z,57.25
2018-06-17T11:51:09.961Z,57.25
2018-06-17T11:52:09.945Z,58.22
2018-06-17T11:53:09.925Z,57.83
2018-06-17T11:54:09.955Z,58.41
2018-06-17T11:55:09.890Z,57.22
2018-06-17T11:56:09.874Z,58.09
2018-06-17T11:57:09.857Z,59.16
2018-06-17T11:58:09.877Z,57.70
2018-06-17T11:59:09.822Z,57.51
2018-06-17T12:00:09.802Z,57.51
2018-06-17T12:01:09.789Z,58.19
2018-06-17T12:02:09.786Z,58.48
2018-06-17T12:03:09.827Z,58.29
2018-06-17T12:04:10.245Z,58.58
2018-06-17T12:05:09.718Z,57.15
2018-06-17T12:06:09.812Z,59.26
2018-06-17T12:07:09.681Z,58.70
2018-06-17T12:08:09.669Z,57.90
2018-06-17T12:09:09.645Z,57.80
2018-06-17T12:10:09.628Z,58.39
2018-06-17T12:11:09.664Z,57.25
2018-06-17T12:12:09.596Z,57.22
2018-06-17T12:13:09.582Z,57.29
2018-06-17T12:14:09.568Z,57.09
2018-06-17T12:15:09.541Z,57.68
2018-06-17T12:16:09.799Z,57.90
2018-06-17T12:17:09.503Z,57.51
2018-06-17T12:18:09.488Z,58.31
2018-06-17T12:19:09.479Z,57.54
2018-06-17T12:20:09.817Z,57.96
2018-06-17T12:21:09.436Z,57.37
2018-06-17T12:22:09.423Z,57.31
2018-06-17T12:23:09.403Z,57.79
2018-06-17T12:24:09.400Z,54.97
2018-06-17T12:25:09.411Z,56.04
2018-06-17T12:26:09.356Z,56.82
2018-06-17T12:27:09.395Z,55.94
2018-06-17T12:28:10.241Z,56.52
2018-06-17T12:29:09.298Z,55.43
2018-06-17T12:30:09.288Z,55.04
2018-06-17T12:31:09.265Z,54.94
2018-06-17T12:32:09.296Z,54.92
2018-06-17T12:33:09.242Z,55.41
2018-06-17T12:34:09.213Z,56.35
2018-06-17T12:35:09.203Z,56.37
2018-06-17T12:36:09.747Z,56.25
2018-06-17T12:37:09.209Z,56.05
2018-06-17T12:38:09.189Z,57.22
2018-06-17T12:39:09.131Z,57.22
2018-06-17T12:40:09.761Z,58.36
2018-06-17T12:41:09.091Z,57.32
2018-06-17T12:42:09.075Z,56.45
2018-06-17T12:43:09.100Z,56.74
2018-06-17T12:44:09.043Z,55.77
2018-06-17T12:45:09.023Z,55.38
2018-06-17T12:46:09.007Z,54.60
2018-06-17T12:47:08.987Z,54.70
2018-06-17T12:48:09.030Z,54.41
2018-06-17T12:49:08.951Z,54.50
2018-06-17T12:50:08.959Z,54.31
2018-06-17T12:51:08.916Z,55.60
2018-06-17T12:52:08.902Z,54.92